sensor_id;sensor_type;location;lat;lon;timestamp;P1;durP1;ratioP1;P2;durP2;ratioP2
11675;SDS011;5894;42.768;23.404;2023-04-10T00:00:31;6.60;;;5.60;;
11675;SDS011;5894;42.768;23.404;2023-04-10T00:02:59;7.27;;;5.87;;
11675;SDS011;5894;42.768;23.404;2023-04-10T00:05:27;7.23;;;5.73;;
11675;SDS011;5894;42.768;23.404;2023-04-10T00:07:53;6.17;;;5.47;;
11675;SDS011;5894;42.768;23.404;2023-04-10T00:10:20;8.10;;;4.97;;
11675;SDS011;5894;42.768;23.404;2023-04-10T00:12:47;6.53;;;5.27;;
11675;SDS011;5894;42.768;23.404;2023-04-10T00:15:15;6.27;;;5.30;;
11675;SDS011;5894;42.768;23.404;2023-04-10T00:17:43;8.03;;;6.33;;
11675;SDS011;5894;42.768;23.404;2023-04-10T00:20:10;6.90;;;5.60;;
11675;SDS011;5894;42.768;23.404;2023-04-10T00:22:37;7.63;;;5.93;;
11675;SDS011;5894;42.768;23.404;2023-04-10T00:25:06;7.93;;;5.93;;
11675;SDS011;5894;42.768;23.404;2023-04-10T00:27:33;8.20;;;6.63;;
11675;SDS011;5894;42.768;23.404;2023-04-10T00:30:00;6.73;;;5.80;;
11675;SDS011;5894;42.768;23.404;2023-04-10T00:32:27;7.77;;;5.93;;
11675;SDS011;5894;42.768;23.404;2023-04-10T00:34:56;6.07;;;4.93;;
11675;SDS011;5894;42.768;23.404;2023-04-10T00:37:22;9.33;;;5.07;;
11675;SDS011;5894;42.768;23.404;2023-04-10T00:39:49;7.77;;;6.33;;
11675;SDS011;5894;42.768;23.404;2023-04-10T00:42:16;7.57;;;5.97;;
11675;SDS011;5894;42.768;23.404;2023-04-10T00:44:43;10.90;;;7.17;;
11675;SDS011;5894;42.768;23.404;2023-04-10T00:47:11;9.50;;;6.80;;
11675;SDS011;5894;42.768;23.404;2023-04-10T00:49:38;8.53;;;6.53;;
11675;SDS011;5894;42.768;23.404;2023-04-10T00:52:07;7.27;;;6.10;;
11675;SDS011;5894;42.768;23.404;2023-04-10T00:54:34;7.90;;;6.20;;
11675;SDS011;5894;42.768;23.404;2023-04-10T00:57:01;7.47;;;5.67;;
11675;SDS011;5894;42.768;23.404;2023-04-10T00:59:29;9.17;;;6.57;;
11675;SDS011;5894;42.768;23.404;2023-04-10T01:01:56;7.53;;;6.33;;
11675;SDS011;5894;42.768;23.404;2023-04-10T01:04:23;7.10;;;6.17;;
11675;SDS011;5894;42.768;23.404;2023-04-10T01:06:54;7.37;;;6.20;;
11675;SDS011;5894;42.768;23.404;2023-04-10T01:09:36;8.57;;;6.83;;
11675;SDS011;5894;42.768;23.404;2023-04-10T01:12:14;8.83;;;6.63;;
11675;SDS011;5894;42.768;23.404;2023-04-10T01:14:52;8.13;;;6.20;;
11675;SDS011;5894;42.768;23.404;2023-04-10T01:17:28;8.43;;;6.40;;
11675;SDS011;5894;42.768;23.404;2023-04-10T01:20:00;7.57;;;5.90;;
11675;SDS011;5894;42.768;23.404;2023-04-10T01:22:34;7.23;;;6.03;;
11675;SDS011;5894;42.768;23.404;2023-04-10T01:25:18;7.80;;;6.17;;
11675;SDS011;5894;42.768;23.404;2023-04-10T01:28:19;10.23;;;6.20;;
11675;SDS011;5894;42.768;23.404;2023-04-10T01:30:58;8.33;;;6.23;;
11675;SDS011;5894;42.768;23.404;2023-04-10T01:33:28;8.67;;;6.33;;
11675;SDS011;5894;42.768;23.404;2023-04-10T01:36:06;7.20;;;6.17;;
11675;SDS011;5894;42.768;23.404;2023-04-10T01:38:35;8.43;;;6.23;;
11675;SDS011;5894;42.768;23.404;2023-04-10T01:41:05;8.03;;;6.73;;
11675;SDS011;5894;42.768;23.404;2023-04-10T01:43:33;17.93;;;10.20;;
11675;SDS011;5894;42.768;23.404;2023-04-10T01:46:03;10.77;;;7.70;;
11675;SDS011;5894;42.768;23.404;2023-04-10T01:48:30;9.93;;;7.20;;
11675;SDS011;5894;42.768;23.404;2023-04-10T01:50:59;7.17;;;6.30;;
11675;SDS011;5894;42.768;23.404;2023-04-10T01:53:29;6.73;;;5.77;;
11675;SDS011;5894;42.768;23.404;2023-04-10T01:55:57;7.53;;;6.30;;
11675;SDS011;5894;42.768;23.404;2023-04-10T01:58:28;7.50;;;6.57;;
11675;SDS011;5894;42.768;23.404;2023-04-10T02:00:57;7.20;;;6.20;;
11675;SDS011;5894;42.768;23.404;2023-04-10T02:03:25;9.40;;;6.80;;
11675;SDS011;5894;42.768;23.404;2023-04-10T02:05:55;8.20;;;6.67;;
11675;SDS011;5894;42.768;23.404;2023-04-10T02:08:36;7.47;;;6.30;;
11675;SDS011;5894;42.768;23.404;2023-04-10T02:11:08;8.27;;;5.90;;
11675;SDS011;5894;42.768;23.404;2023-04-10T02:13:41;6.93;;;5.80;;
11675;SDS011;5894;42.768;23.404;2023-04-10T02:16:08;8.03;;;6.30;;
11675;SDS011;5894;42.768;23.404;2023-04-10T02:18:40;7.03;;;6.30;;
11675;SDS011;5894;42.768;23.404;2023-04-10T02:21:07;7.07;;;6.13;;
11675;SDS011;5894;42.768;23.404;2023-04-10T02:23:34;7.57;;;6.60;;
11675;SDS011;5894;42.768;23.404;2023-04-10T02:26:06;7.83;;;6.40;;
11675;SDS011;5894;42.768;23.404;2023-04-10T02:28:33;8.00;;;6.67;;
11675;SDS011;5894;42.768;23.404;2023-04-10T02:31:00;7.43;;;6.47;;
11675;SDS011;5894;42.768;23.404;2023-04-10T02:33:26;8.47;;;6.90;;
11675;SDS011;5894;42.768;23.404;2023-04-10T02:35:56;8.73;;;6.87;;
11675;SDS011;5894;42.768;23.404;2023-04-10T02:38:23;9.37;;;7.27;;
11675;SDS011;5894;42.768;23.404;2023-04-10T02:40:50;7.87;;;6.87;;
11675;SDS011;5894;42.768;23.404;2023-04-10T02:43:17;11.63;;;9.20;;
11675;SDS011;5894;42.768;23.404;2023-04-10T02:45:45;11.67;;;9.03;;
11675;SDS011;5894;42.768;23.404;2023-04-10T02:48:18;12.20;;;9.57;;
11675;SDS011;5894;42.768;23.404;2023-04-10T02:50:55;12.63;;;10.23;;
11675;SDS011;5894;42.768;23.404;2023-04-10T02:53:23;13.93;;;10.73;;
11675;SDS011;5894;42.768;23.404;2023-04-10T02:55:55;12.93;;;10.00;;
11675;SDS011;5894;42.768;23.404;2023-04-10T02:58:22;13.00;;;10.23;;
11675;SDS011;5894;42.768;23.404;2023-04-10T03:00:52;13.57;;;10.17;;
11675;SDS011;5894;42.768;23.404;2023-04-10T03:03:39;19.50;;;12.97;;
11675;SDS011;5894;42.768;23.404;2023-04-10T03:06:08;19.93;;;12.67;;
11675;SDS011;5894;42.768;23.404;2023-04-10T03:08:37;14.40;;;10.70;;
11675;SDS011;5894;42.768;23.404;2023-04-10T03:11:04;15.63;;;10.50;;
11675;SDS011;5894;42.768;23.404;2023-04-10T03:13:32;12.57;;;9.30;;
11675;SDS011;5894;42.768;23.404;2023-04-10T03:15:59;42.93;;;23.73;;
11675;SDS011;5894;42.768;23.404;2023-04-10T03:18:26;48.73;;;25.77;;
11675;SDS011;5894;42.768;23.404;2023-04-10T03:20:55;22.23;;;13.33;;
11675;SDS011;5894;42.768;23.404;2023-04-10T03:23:23;11.30;;;8.77;;
11675;SDS011;5894;42.768;23.404;2023-04-10T03:25:50;10.73;;;8.03;;
11675;SDS011;5894;42.768;23.404;2023-04-10T03:28:19;11.10;;;8.33;;
11675;SDS011;5894;42.768;23.404;2023-04-10T03:30:46;11.60;;;8.60;;
11675;SDS011;5894;42.768;23.404;2023-04-10T03:33:13;11.90;;;9.47;;
11675;SDS011;5894;42.768;23.404;2023-04-10T03:35:40;16.73;;;11.87;;
11675;SDS011;5894;42.768;23.404;2023-04-10T03:38:07;21.20;;;15.77;;
11675;SDS011;5894;42.768;23.404;2023-04-10T03:40:36;19.97;;;14.50;;
11675;SDS011;5894;42.768;23.404;2023-04-10T03:43:05;20.33;;;15.03;;
11675;SDS011;5894;42.768;23.404;2023-04-10T03:45:33;23.33;;;16.53;;
11675;SDS011;5894;42.768;23.404;2023-04-10T03:48:01;31.53;;;23.60;;
11675;SDS011;5894;42.768;23.404;2023-04-10T03:50:37;24.77;;;20.07;;
11675;SDS011;5894;42.768;23.404;2023-04-10T03:53:04;16.00;;;14.03;;
11675;SDS011;5894;42.768;23.404;2023-04-10T03:55:31;16.47;;;12.33;;
11675;SDS011;5894;42.768;23.404;2023-04-10T03:58:01;16.97;;;12.63;;
11675;SDS011;5894;42.768;23.404;2023-04-10T04:00:29;10.33;;;8.70;;
11675;SDS011;5894;42.768;23.404;2023-04-10T04:03:06;15.20;;;10.90;;
11675;SDS011;5894;42.768;23.404;2023-04-10T04:05:51;19.13;;;12.23;;
11675;SDS011;5894;42.768;23.404;2023-04-10T04:08:41;20.87;;;13.37;;
11675;SDS011;5894;42.768;23.404;2023-04-10T04:11:16;20.50;;;13.73;;
11675;SDS011;5894;42.768;23.404;2023-04-10T04:14:05;20.97;;;13.47;;
11675;SDS011;5894;42.768;23.404;2023-04-10T04:16:55;19.47;;;13.17;;
11675;SDS011;5894;42.768;23.404;2023-04-10T04:19:57;18.00;;;12.57;;
11675;SDS011;5894;42.768;23.404;2023-04-10T04:22:42;20.33;;;12.73;;
11675;SDS011;5894;42.768;23.404;2023-04-10T04:25:38;17.47;;;12.63;;
11675;SDS011;5894;42.768;23.404;2023-04-10T04:28:23;22.17;;;15.53;;
11675;SDS011;5894;42.768;23.404;2023-04-10T04:31:15;30.57;;;19.00;;
11675;SDS011;5894;42.768;23.404;2023-04-10T04:34:01;27.90;;;18.13;;
11675;SDS011;5894;42.768;23.404;2023-04-10T04:36:45;32.27;;;21.60;;
11675;SDS011;5894;42.768;23.404;2023-04-10T04:39:30;33.83;;;22.97;;
11675;SDS011;5894;42.768;23.404;2023-04-10T04:42:20;30.17;;;20.50;;
11675;SDS011;5894;42.768;23.404;2023-04-10T04:45:22;29.73;;;19.50;;
11675;SDS011;5894;42.768;23.404;2023-04-10T04:48:07;46.57;;;26.73;;
11675;SDS011;5894;42.768;23.404;2023-04-10T04:50:53;75.30;;;33.90;;
11675;SDS011;5894;42.768;23.404;2023-04-10T04:53:45;63.67;;;31.93;;
11675;SDS011;5894;42.768;23.404;2023-04-10T04:56:47;52.83;;;27.57;;
11675;SDS011;5894;42.768;23.404;2023-04-10T04:59:26;47.33;;;26.27;;
11675;SDS011;5894;42.768;23.404;2023-04-10T05:01:59;57.97;;;28.07;;
11675;SDS011;5894;42.768;23.404;2023-04-10T05:05:06;58.40;;;30.50;;
11675;SDS011;5894;42.768;23.404;2023-04-10T05:07:49;53.97;;;29.70;;
11675;SDS011;5894;42.768;23.404;2023-04-10T05:10:35;52.37;;;29.60;;
11675;SDS011;5894;42.768;23.404;2023-04-10T05:13:27;59.63;;;36.37;;
11675;SDS011;5894;42.768;23.404;2023-04-10T05:16:13;59.47;;;38.87;;
11675;SDS011;5894;42.768;23.404;2023-04-10T05:19:00;62.60;;;40.50;;
11675;SDS011;5894;42.768;23.404;2023-04-10T05:21:54;73.53;;;45.10;;
11675;SDS011;5894;42.768;23.404;2023-04-10T05:24:43;73.90;;;47.67;;
11675;SDS011;5894;42.768;23.404;2023-04-10T05:27:27;66.40;;;46.70;;
11675;SDS011;5894;42.768;23.404;2023-04-10T05:30:23;70.33;;;46.27;;
11675;SDS011;5894;42.768;23.404;2023-04-10T05:33:08;58.77;;;42.30;;
11675;SDS011;5894;42.768;23.404;2023-04-10T05:36:01;54.90;;;38.33;;
11675;SDS011;5894;42.768;23.404;2023-04-10T05:38:47;53.87;;;35.13;;
11675;SDS011;5894;42.768;23.404;2023-04-10T05:41:37;53.33;;;33.73;;
11675;SDS011;5894;42.768;23.404;2023-04-10T05:44:20;46.87;;;32.63;;
11675;SDS011;5894;42.768;23.404;2023-04-10T05:47:09;47.83;;;30.53;;
11675;SDS011;5894;42.768;23.404;2023-04-10T05:49:54;38.50;;;25.43;;
11675;SDS011;5894;42.768;23.404;2023-04-10T05:52:33;29.10;;;20.53;;
11675;SDS011;5894;42.768;23.404;2023-04-10T05:55:19;25.67;;;19.20;;
11675;SDS011;5894;42.768;23.404;2023-04-10T05:58:02;26.43;;;19.23;;
11675;SDS011;5894;42.768;23.404;2023-04-10T06:00:49;28.07;;;19.73;;
11675;SDS011;5894;42.768;23.404;2023-04-10T06:03:43;12.67;;;10.53;;
11675;SDS011;5894;42.768;23.404;2023-04-10T06:06:10;12.23;;;10.13;;
11675;SDS011;5894;42.768;23.404;2023-04-10T06:08:39;11.57;;;9.63;;
11675;SDS011;5894;42.768;23.404;2023-04-10T06:11:07;16.00;;;11.70;;
11675;SDS011;5894;42.768;23.404;2023-04-10T06:13:34;18.20;;;12.83;;
11675;SDS011;5894;42.768;23.404;2023-04-10T06:16:01;17.53;;;11.50;;
11675;SDS011;5894;42.768;23.404;2023-04-10T06:18:30;18.70;;;12.73;;
11675;SDS011;5894;42.768;23.404;2023-04-10T06:20:56;12.13;;;10.10;;
11675;SDS011;5894;42.768;23.404;2023-04-10T06:23:26;12.00;;;10.07;;
11675;SDS011;5894;42.768;23.404;2023-04-10T06:25:53;12.20;;;10.20;;
11675;SDS011;5894;42.768;23.404;2023-04-10T06:28:21;13.37;;;10.17;;
11675;SDS011;5894;42.768;23.404;2023-04-10T06:30:53;13.17;;;10.57;;
11675;SDS011;5894;42.768;23.404;2023-04-10T06:33:27;12.67;;;9.47;;
11675;SDS011;5894;42.768;23.404;2023-04-10T06:35:55;11.67;;;9.67;;
11675;SDS011;5894;42.768;23.404;2023-04-10T06:38:22;11.53;;;9.33;;
11675;SDS011;5894;42.768;23.404;2023-04-10T06:40:49;11.73;;;9.97;;
11675;SDS011;5894;42.768;23.404;2023-04-10T06:43:16;12.33;;;10.67;;
11675;SDS011;5894;42.768;23.404;2023-04-10T06:45:44;18.43;;;13.47;;
11675;SDS011;5894;42.768;23.404;2023-04-10T06:48:11;15.63;;;11.70;;
11675;SDS011;5894;42.768;23.404;2023-04-10T06:50:39;14.37;;;11.20;;
11675;SDS011;5894;42.768;23.404;2023-04-10T06:53:06;18.83;;;13.43;;
11675;SDS011;5894;42.768;23.404;2023-04-10T06:55:33;11.70;;;9.77;;
11675;SDS011;5894;42.768;23.404;2023-04-10T06:58:01;15.83;;;10.13;;
11675;SDS011;5894;42.768;23.404;2023-04-10T07:00:28;12.23;;;9.23;;
11675;SDS011;5894;42.768;23.404;2023-04-10T07:02:57;11.70;;;9.27;;
11675;SDS011;5894;42.768;23.404;2023-04-10T07:05:24;16.13;;;11.47;;
11675;SDS011;5894;42.768;23.404;2023-04-10T07:07:50;19.47;;;13.73;;
11675;SDS011;5894;42.768;23.404;2023-04-10T07:10:17;11.90;;;9.27;;
11675;SDS011;5894;42.768;23.404;2023-04-10T07:12:44;11.73;;;9.33;;
11675;SDS011;5894;42.768;23.404;2023-04-10T07:15:11;11.67;;;8.83;;
11675;SDS011;5894;42.768;23.404;2023-04-10T07:17:37;11.60;;;8.87;;
11675;SDS011;5894;42.768;23.404;2023-04-10T07:20:06;10.13;;;8.67;;
11675;SDS011;5894;42.768;23.404;2023-04-10T07:22:34;13.73;;;9.97;;
11675;SDS011;5894;42.768;23.404;2023-04-10T07:25:00;9.90;;;8.33;;
11675;SDS011;5894;42.768;23.404;2023-04-10T07:27:27;10.87;;;9.10;;
11675;SDS011;5894;42.768;23.404;2023-04-10T07:29:54;10.37;;;8.43;;
11675;SDS011;5894;42.768;23.404;2023-04-10T07:32:21;10.63;;;8.00;;
11675;SDS011;5894;42.768;23.404;2023-04-10T07:34:48;9.80;;;8.67;;
11675;SDS011;5894;42.768;23.404;2023-04-10T07:37:16;14.80;;;9.47;;
11675;SDS011;5894;42.768;23.404;2023-04-10T07:39:43;10.80;;;8.97;;
11675;SDS011;5894;42.768;23.404;2023-04-10T07:42:10;9.87;;;7.80;;
11675;SDS011;5894;42.768;23.404;2023-04-10T07:44:37;11.57;;;8.73;;
11675;SDS011;5894;42.768;23.404;2023-04-10T07:47:03;11.70;;;8.20;;
11675;SDS011;5894;42.768;23.404;2023-04-10T07:49:30;9.20;;;7.67;;
11675;SDS011;5894;42.768;23.404;2023-04-10T07:51:57;11.63;;;8.17;;
11675;SDS011;5894;42.768;23.404;2023-04-10T07:54:25;11.53;;;9.30;;
11675;SDS011;5894;42.768;23.404;2023-04-10T07:56:52;10.73;;;7.90;;
11675;SDS011;5894;42.768;23.404;2023-04-10T07:59:19;13.07;;;8.57;;
11675;SDS011;5894;42.768;23.404;2023-04-10T08:01:45;10.33;;;8.57;;
11675;SDS011;5894;42.768;23.404;2023-04-10T08:04:12;13.43;;;8.73;;
11675;SDS011;5894;42.768;23.404;2023-04-10T08:06:39;12.23;;;8.63;;
11675;SDS011;5894;42.768;23.404;2023-04-10T08:09:06;10.40;;;7.87;;
11675;SDS011;5894;42.768;23.404;2023-04-10T08:11:34;11.10;;;8.23;;
11675;SDS011;5894;42.768;23.404;2023-04-10T08:14:02;14.47;;;7.87;;
11675;SDS011;5894;42.768;23.404;2023-04-10T08:16:30;9.47;;;8.13;;
11675;SDS011;5894;42.768;23.404;2023-04-10T08:18:57;9.40;;;8.07;;
11675;SDS011;5894;42.768;23.404;2023-04-10T08:21:25;15.23;;;7.90;;
11675;SDS011;5894;42.768;23.404;2023-04-10T08:23:54;11.00;;;7.83;;
11675;SDS011;5894;42.768;23.404;2023-04-10T08:26:22;10.90;;;8.23;;
11675;SDS011;5894;42.768;23.404;2023-04-10T08:28:52;12.47;;;8.20;;
11675;SDS011;5894;42.768;23.404;2023-04-10T08:31:21;9.10;;;8.10;;
11675;SDS011;5894;42.768;23.404;2023-04-10T08:33:49;12.10;;;9.00;;
11675;SDS011;5894;42.768;23.404;2023-04-10T08:36:16;10.83;;;8.40;;
11675;SDS011;5894;42.768;23.404;2023-04-10T08:38:43;12.20;;;9.20;;
11675;SDS011;5894;42.768;23.404;2023-04-10T08:41:11;12.87;;;9.80;;
11675;SDS011;5894;42.768;23.404;2023-04-10T08:43:38;11.37;;;8.90;;
11675;SDS011;5894;42.768;23.404;2023-04-10T08:46:06;12.73;;;7.87;;
11675;SDS011;5894;42.768;23.404;2023-04-10T08:48:35;12.77;;;8.10;;
11675;SDS011;5894;42.768;23.404;2023-04-10T08:51:06;13.23;;;8.33;;
11675;SDS011;5894;42.768;23.404;2023-04-10T08:53:39;8.83;;;6.97;;
11675;SDS011;5894;42.768;23.404;2023-04-10T08:56:09;10.33;;;7.93;;
11675;SDS011;5894;42.768;23.404;2023-04-10T08:58:38;9.20;;;7.53;;
11675;SDS011;5894;42.768;23.404;2023-04-10T09:01:06;14.20;;;10.33;;
11675;SDS011;5894;42.768;23.404;2023-04-10T09:03:35;15.67;;;11.20;;
11675;SDS011;5894;42.768;23.404;2023-04-10T09:06:02;10.57;;;8.67;;
11675;SDS011;5894;42.768;23.404;2023-04-10T09:08:30;12.07;;;9.50;;
11675;SDS011;5894;42.768;23.404;2023-04-10T09:10:57;10.10;;;8.07;;
11675;SDS011;5894;42.768;23.404;2023-04-10T09:13:35;10.10;;;8.33;;
11675;SDS011;5894;42.768;23.404;2023-04-10T09:16:04;10.20;;;8.13;;
11675;SDS011;5894;42.768;23.404;2023-04-10T09:21:20;10.40;;;8.20;;
11675;SDS011;5894;42.768;23.404;2023-04-10T09:23:48;12.77;;;9.00;;
11675;SDS011;5894;42.768;23.404;2023-04-10T09:26:21;14.43;;;8.27;;
11675;SDS011;5894;42.768;23.404;2023-04-10T09:28:59;9.07;;;8.03;;
11675;SDS011;5894;42.768;23.404;2023-04-10T09:31:31;14.20;;;9.77;;
11675;SDS011;5894;42.768;23.404;2023-04-10T09:34:11;10.27;;;8.50;;
11675;SDS011;5894;42.768;23.404;2023-04-10T09:36:39;9.87;;;8.03;;
11675;SDS011;5894;42.768;23.404;2023-04-10T09:39:08;15.20;;;9.07;;
11675;SDS011;5894;42.768;23.404;2023-04-10T09:41:45;11.10;;;9.40;;
11675;SDS011;5894;42.768;23.404;2023-04-10T09:44:15;10.40;;;8.90;;
11675;SDS011;5894;42.768;23.404;2023-04-10T09:46:44;17.45;;;10.80;;
11675;SDS011;5894;42.768;23.404;2023-04-10T09:49:16;15.73;;;9.73;;
11675;SDS011;5894;42.768;23.404;2023-04-10T09:51:43;12.27;;;9.37;;
11675;SDS011;5894;42.768;23.404;2023-04-10T09:54:11;10.87;;;8.23;;
11675;SDS011;5894;42.768;23.404;2023-04-10T09:56:38;11.27;;;8.50;;
11675;SDS011;5894;42.768;23.404;2023-04-10T09:59:05;9.47;;;7.30;;
11675;SDS011;5894;42.768;23.404;2023-04-10T10:01:33;9.68;;;8.20;;
11675;SDS011;5894;42.768;23.404;2023-04-10T10:04:04;12.15;;;8.27;;
11675;SDS011;5894;42.768;23.404;2023-04-10T10:06:32;10.20;;;8.23;;
11675;SDS011;5894;42.768;23.404;2023-04-10T10:09:00;9.55;;;8.40;;
11675;SDS011;5894;42.768;23.404;2023-04-10T10:11:29;9.57;;;8.02;;
11675;SDS011;5894;42.768;23.404;2023-04-10T10:13:57;9.65;;;8.40;;
11675;SDS011;5894;42.768;23.404;2023-04-10T10:16:28;13.57;;;9.27;;
11675;SDS011;5894;42.768;23.404;2023-04-10T10:19:00;10.73;;;7.80;;
11675;SDS011;5894;42.768;23.404;2023-04-10T10:21:36;12.23;;;8.23;;
11675;SDS011;5894;42.768;23.404;2023-04-10T10:24:06;11.13;;;8.25;;
11675;SDS011;5894;42.768;23.404;2023-04-10T10:26:34;14.30;;;9.17;;
11675;SDS011;5894;42.768;23.404;2023-04-10T10:29:04;13.40;;;8.23;;
11675;SDS011;5894;42.768;23.404;2023-04-10T10:31:35;8.07;;;6.93;;
11675;SDS011;5894;42.768;23.404;2023-04-10T10:34:02;19.00;;;8.35;;
11675;SDS011;5894;42.768;23.404;2023-04-10T10:36:31;10.40;;;7.68;;
11675;SDS011;5894;42.768;23.404;2023-04-10T10:39:03;8.30;;;6.57;;
11675;SDS011;5894;42.768;23.404;2023-04-10T10:41:45;7.47;;;6.70;;
11675;SDS011;5894;42.768;23.404;2023-04-10T10:44:19;8.20;;;7.40;;
11675;SDS011;5894;42.768;23.404;2023-04-10T10:47:00;8.63;;;7.00;;
11675;SDS011;5894;42.768;23.404;2023-04-10T10:57:59;10.38;;;7.93;;
11675;SDS011;5894;42.768;23.404;2023-04-10T11:03:34;9.52;;;7.35;;
11675;SDS011;5894;42.768;23.404;2023-04-10T11:06:02;9.45;;;6.97;;
11675;SDS011;5894;42.768;23.404;2023-04-10T11:08:40;10.70;;;7.20;;
11675;SDS011;5894;42.768;23.404;2023-04-10T11:11:22;9.43;;;7.95;;
11675;SDS011;5894;42.768;23.404;2023-04-10T11:16:43;12.75;;;8.65;;
11675;SDS011;5894;42.768;23.404;2023-04-10T11:19:11;8.68;;;7.18;;
11675;SDS011;5894;42.768;23.404;2023-04-10T11:24:28;8.38;;;7.50;;
11675;SDS011;5894;42.768;23.404;2023-04-10T11:30:29;10.57;;;8.20;;
11675;SDS011;5894;42.768;23.404;2023-04-10T11:32:57;13.68;;;10.48;;
11675;SDS011;5894;42.768;23.404;2023-04-10T11:35:25;9.20;;;8.05;;
11675;SDS011;5894;42.768;23.404;2023-04-10T11:38:06;10.48;;;7.90;;
11675;SDS011;5894;42.768;23.404;2023-04-10T11:40:54;15.02;;;10.15;;
11675;SDS011;5894;42.768;23.404;2023-04-10T11:43:23;9.68;;;7.95;;
11675;SDS011;5894;42.768;23.404;2023-04-10T11:45:57;9.38;;;7.60;;
11675;SDS011;5894;42.768;23.404;2023-04-10T11:48:26;10.82;;;8.18;;
11675;SDS011;5894;42.768;23.404;2023-04-10T11:50:53;10.25;;;7.75;;
11675;SDS011;5894;42.768;23.404;2023-04-10T11:53:20;10.70;;;8.30;;
11675;SDS011;5894;42.768;23.404;2023-04-10T11:55:48;16.73;;;10.40;;
11675;SDS011;5894;42.768;23.404;2023-04-10T11:58:21;16.40;;;11.55;;
11675;SDS011;5894;42.768;23.404;2023-04-10T12:00:55;10.95;;;9.30;;
11675;SDS011;5894;42.768;23.404;2023-04-10T12:03:32;12.05;;;9.40;;
11675;SDS011;5894;42.768;23.404;2023-04-10T12:06:00;13.95;;;9.55;;
11675;SDS011;5894;42.768;23.404;2023-04-10T12:08:30;9.48;;;7.97;;
11675;SDS011;5894;42.768;23.404;2023-04-10T12:10:57;8.60;;;7.40;;
11675;SDS011;5894;42.768;23.404;2023-04-10T12:13:27;9.25;;;7.72;;
11675;SDS011;5894;42.768;23.404;2023-04-10T12:15:56;11.83;;;8.77;;
11675;SDS011;5894;42.768;23.404;2023-04-10T12:18:24;10.70;;;9.02;;
11675;SDS011;5894;42.768;23.404;2023-04-10T12:20:52;10.70;;;9.37;;
11675;SDS011;5894;42.768;23.404;2023-04-10T12:23:20;9.43;;;8.43;;
11675;SDS011;5894;42.768;23.404;2023-04-10T12:25:48;10.03;;;8.70;;
11675;SDS011;5894;42.768;23.404;2023-04-10T12:28:16;11.27;;;9.50;;
11675;SDS011;5894;42.768;23.404;2023-04-10T12:30:49;12.07;;;9.30;;
11675;SDS011;5894;42.768;23.404;2023-04-10T12:33:19;10.50;;;8.03;;
11675;SDS011;5894;42.768;23.404;2023-04-10T12:35:47;9.37;;;8.37;;
11675;SDS011;5894;42.768;23.404;2023-04-10T12:38:13;8.00;;;7.17;;
11675;SDS011;5894;42.768;23.404;2023-04-10T12:40:56;12.27;;;9.23;;
11675;SDS011;5894;42.768;23.404;2023-04-10T12:43:29;18.57;;;11.93;;
11675;SDS011;5894;42.768;23.404;2023-04-10T12:45:59;9.23;;;7.77;;
11675;SDS011;5894;42.768;23.404;2023-04-10T12:48:26;11.87;;;8.60;;
11675;SDS011;5894;42.768;23.404;2023-04-10T12:50:53;12.47;;;8.33;;
11675;SDS011;5894;42.768;23.404;2023-04-10T12:53:20;11.77;;;9.03;;
11675;SDS011;5894;42.768;23.404;2023-04-10T12:55:57;13.17;;;8.27;;
11675;SDS011;5894;42.768;23.404;2023-04-10T12:58:25;9.60;;;7.90;;
11675;SDS011;5894;42.768;23.404;2023-04-10T13:00:53;9.97;;;8.10;;
11675;SDS011;5894;42.768;23.404;2023-04-10T13:03:22;7.63;;;6.80;;
11675;SDS011;5894;42.768;23.404;2023-04-10T13:05:50;6.43;;;5.73;;
11675;SDS011;5894;42.768;23.404;2023-04-10T13:08:17;8.57;;;6.87;;
11675;SDS011;5894;42.768;23.404;2023-04-10T13:10:45;8.57;;;7.00;;
11675;SDS011;5894;42.768;23.404;2023-04-10T13:13:12;9.80;;;8.27;;
11675;SDS011;5894;42.768;23.404;2023-04-10T13:15:40;6.70;;;6.00;;
11675;SDS011;5894;42.768;23.404;2023-04-10T13:18:07;11.23;;;8.13;;
11675;SDS011;5894;42.768;23.404;2023-04-10T13:20:36;13.17;;;9.00;;
11675;SDS011;5894;42.768;23.404;2023-04-10T13:23:04;8.80;;;7.57;;
11675;SDS011;5894;42.768;23.404;2023-04-10T13:25:31;15.07;;;9.90;;
11675;SDS011;5894;42.768;23.404;2023-04-10T13:28:00;13.57;;;10.13;;
11675;SDS011;5894;42.768;23.404;2023-04-10T13:30:27;15.30;;;9.83;;
11675;SDS011;5894;42.768;23.404;2023-04-10T13:32:54;11.63;;;7.77;;
11675;SDS011;5894;42.768;23.404;2023-04-10T13:35:21;9.03;;;7.60;;
11675;SDS011;5894;42.768;23.404;2023-04-10T13:37:49;19.37;;;12.50;;
11675;SDS011;5894;42.768;23.404;2023-04-10T13:40:18;11.53;;;8.20;;
11675;SDS011;5894;42.768;23.404;2023-04-10T13:42:46;9.07;;;7.67;;
11675;SDS011;5894;42.768;23.404;2023-04-10T13:45:12;9.67;;;7.70;;
11675;SDS011;5894;42.768;23.404;2023-04-10T13:47:39;9.57;;;7.97;;
11675;SDS011;5894;42.768;23.404;2023-04-10T13:50:06;8.53;;;7.47;;
11675;SDS011;5894;42.768;23.404;2023-04-10T13:52:34;8.97;;;7.20;;
11675;SDS011;5894;42.768;23.404;2023-04-10T13:55:02;8.38;;;6.50;;
11675;SDS011;5894;42.768;23.404;2023-04-10T13:57:29;8.35;;;7.38;;
11675;SDS011;5894;42.768;23.404;2023-04-10T13:59:56;9.50;;;8.00;;
11675;SDS011;5894;42.768;23.404;2023-04-10T14:02:23;7.22;;;6.53;;
11675;SDS011;5894;42.768;23.404;2023-04-10T14:04:50;8.00;;;7.20;;
11675;SDS011;5894;42.768;23.404;2023-04-10T14:07:17;10.65;;;8.50;;
11675;SDS011;5894;42.768;23.404;2023-04-10T14:09:44;8.48;;;7.28;;
11675;SDS011;5894;42.768;23.404;2023-04-10T14:12:13;6.32;;;5.72;;
11675;SDS011;5894;42.768;23.404;2023-04-10T14:14:41;5.33;;;4.83;;
11675;SDS011;5894;42.768;23.404;2023-04-10T14:17:08;6.93;;;5.97;;
11675;SDS011;5894;42.768;23.404;2023-04-10T14:19:35;5.77;;;5.27;;
11675;SDS011;5894;42.768;23.404;2023-04-10T14:22:02;7.10;;;5.80;;
11675;SDS011;5894;42.768;23.404;2023-04-10T14:24:29;7.73;;;6.53;;
11675;SDS011;5894;42.768;23.404;2023-04-10T14:26:56;7.73;;;6.23;;
11675;SDS011;5894;42.768;23.404;2023-04-10T14:29:26;9.47;;;6.87;;
11675;SDS011;5894;42.768;23.404;2023-04-10T14:31:53;7.17;;;5.73;;
11675;SDS011;5894;42.768;23.404;2023-04-10T14:34:20;6.20;;;5.30;;
11675;SDS011;5894;42.768;23.404;2023-04-10T14:36:47;5.90;;;5.30;;
11675;SDS011;5894;42.768;23.404;2023-04-10T14:39:14;8.63;;;6.50;;
11675;SDS011;5894;42.768;23.404;2023-04-10T14:41:40;8.17;;;6.23;;
11675;SDS011;5894;42.768;23.404;2023-04-10T14:44:07;8.30;;;6.83;;
11675;SDS011;5894;42.768;23.404;2023-04-10T14:46:35;9.07;;;7.40;;
11675;SDS011;5894;42.768;23.404;2023-04-10T14:49:02;6.67;;;5.97;;
11675;SDS011;5894;42.768;23.404;2023-04-10T14:51:29;8.27;;;6.80;;
11675;SDS011;5894;42.768;23.404;2023-04-10T14:53:56;10.23;;;7.70;;
11675;SDS011;5894;42.768;23.404;2023-04-10T14:56:22;7.73;;;6.63;;
11675;SDS011;5894;42.768;23.404;2023-04-10T14:58:49;25.70;;;9.40;;
11675;SDS011;5894;42.768;23.404;2023-04-10T15:01:16;48.63;;;16.30;;
11675;SDS011;5894;42.768;23.404;2023-04-10T15:03:46;33.37;;;13.37;;
11675;SDS011;5894;42.768;23.404;2023-04-10T15:06:13;12.03;;;7.20;;
11675;SDS011;5894;42.768;23.404;2023-04-10T15:08:40;7.90;;;7.10;;
11675;SDS011;5894;42.768;23.404;2023-04-10T15:11:07;6.93;;;6.07;;
11675;SDS011;5894;42.768;23.404;2023-04-10T15:13:34;7.67;;;6.87;;
11675;SDS011;5894;42.768;23.404;2023-04-10T15:16:01;7.83;;;7.03;;
11675;SDS011;5894;42.768;23.404;2023-04-10T15:18:29;11.80;;;8.50;;
11675;SDS011;5894;42.768;23.404;2023-04-10T15:20:57;17.10;;;13.70;;
11675;SDS011;5894;42.768;23.404;2023-04-10T15:23:24;14.33;;;12.43;;